Nizhneangarsk, Russia
Current Conditions -  °F | °C
As of 12:00 AM on Friday 30 Jan 2015 (Local Time) from UIUU Reporting Station
Haze Haze  
Wind Chill: -24°   Ceiling: Unl
Heat Index: -24°   Visibility: 3mi
Dew Point: -29°   Wind: 0mph
Humidity: 76%   Direction: NA
Pressure: 30.5"   Gusts: NA
Location:  55.78°N, 109.55°E
Report Text: UIUU 291600Z 00000MPS 5000 BR SKC M31/M34 Q1033 NOSIG RMKQFE729/0973 26822050
Loading
Personal Weather Stations






























Interactive Weather Map New forecast layout! Learn more

10-Day Weather Forecast

Advertisements
Track Severe Weather on mobile